createdAt,value
2022-10-23T00:01:35.128Z,19.10
2022-10-23T00:04:22.980Z,19.10
2022-10-23T00:07:09.421Z,19.10
2022-10-23T00:09:55.165Z,19.10
2022-10-23T00:12:40.927Z,19.00
2022-10-23T00:15:27.499Z,19.00
2022-10-23T00:18:13.894Z,19.00
2022-10-23T00:20:59.681Z,19.00
2022-10-23T00:23:46.050Z,19.00
2022-10-23T00:26:32.153Z,19.10
2022-10-23T00:29:18.561Z,19.00
2022-10-23T00:32:04.268Z,19.00
2022-10-23T00:34:50.511Z,18.90
2022-10-23T00:37:36.269Z,19.00
2022-10-23T00:40:22.580Z,18.90
2022-10-23T00:43:19.004Z,18.90
2022-10-23T00:46:05.121Z,18.90
2022-10-23T00:48:50.877Z,18.80
2022-10-23T00:51:49.001Z,18.80
2022-10-23T00:54:38.277Z,18.80
2022-10-23T00:57:24.902Z,18.80
2022-10-23T01:00:17.862Z,18.80
2022-10-23T01:03:04.485Z,18.80
2022-10-23T01:06:00.559Z,18.80
2022-10-23T01:08:50.080Z,18.80
2022-10-23T01:12:09.798Z,18.70
2022-10-23T01:15:14.468Z,18.80
2022-10-23T01:18:08.609Z,18.90
2022-10-23T01:21:10.986Z,18.90
2022-10-23T01:24:33.572Z,18.90
2022-10-23T01:27:36.563Z,18.90
2022-10-23T01:30:22.570Z,18.90
2022-10-23T01:33:17.615Z,18.90
2022-10-23T01:36:12.302Z,18.90
2022-10-23T01:39:00.479Z,18.90
2022-10-23T01:41:51.818Z,18.90
2022-10-23T01:44:49.541Z,18.90
2022-10-23T01:47:36.621Z,18.90
2022-10-23T01:50:27.341Z,18.80
2022-10-23T01:53:22.305Z,18.90
2022-10-23T01:56:12.241Z,18.90
2022-10-23T01:59:03.627Z,18.80
2022-10-23T02:01:58.325Z,18.70
2022-10-23T02:05:09.371Z,18.70
2022-10-23T02:07:57.390Z,18.80
2022-10-23T02:11:01.124Z,18.80
2022-10-23T02:13:53.517Z,18.80
2022-10-23T02:16:41.631Z,18.80
2022-10-23T02:19:31.785Z,18.80
2022-10-23T02:22:35.746Z,18.70
2022-10-23T02:25:37.641Z,18.70
2022-10-23T02:28:29.104Z,18.70
2022-10-23T02:31:21.601Z,18.70
2022-10-23T02:34:07.668Z,18.80
2022-10-23T02:36:53.562Z,18.80
2022-10-23T02:39:41.630Z,18.80
2022-10-23T02:42:43.474Z,18.80
2022-10-23T02:45:35.386Z,18.80
2022-10-23T02:48:27.307Z,18.70
2022-10-23T02:51:21.637Z,18.80
2022-10-23T02:54:24.868Z,18.80
2022-10-23T02:57:22.608Z,18.80
2022-10-23T03:00:17.861Z,18.80
2022-10-23T03:03:15.093Z,18.80
2022-10-23T03:06:01.473Z,18.70
2022-10-23T03:09:03.883Z,18.60
2022-10-23T03:11:49.920Z,18.60
2022-10-23T03:14:36.946Z,18.60
2022-10-23T03:17:22.817Z,18.60
2022-10-23T03:20:13.814Z,18.60
2022-10-23T03:23:01.348Z,18.60
2022-10-23T03:25:47.688Z,18.60
2022-10-23T03:28:47.483Z,18.60
2022-10-23T03:31:34.926Z,18.60
2022-10-23T03:34:20.483Z,18.50
2022-10-23T03:37:06.953Z,18.60
2022-10-23T03:39:52.765Z,18.60
2022-10-23T03:42:38.688Z,18.60
2022-10-23T03:45:24.746Z,18.60
2022-10-23T03:48:10.917Z,18.60
2022-10-23T03:50:56.872Z,18.50
2022-10-23T03:53:42.518Z,18.50
2022-10-23T03:56:28.178Z,18.50
2022-10-23T03:59:14.212Z,18.50
2022-10-23T04:02:00.644Z,18.50
2022-10-23T04:04:46.408Z,18.50
2022-10-23T04:07:32.326Z,18.50
2022-10-23T04:10:20.359Z,18.50
2022-10-23T04:13:06.224Z,18.50
2022-10-23T04:15:54.926Z,18.60
2022-10-23T04:18:43.330Z,18.60
2022-10-23T04:21:29.427Z,18.50
2022-10-23T04:24:15.770Z,18.50
2022-10-23T04:27:01.563Z,18.50
2022-10-23T04:29:49.210Z,18.50
2022-10-23T04:32:35.369Z,18.50
2022-10-23T04:35:23.690Z,18.50
2022-10-23T04:38:10.456Z,18.50
2022-10-23T04:40:56.346Z,18.50
2022-10-23T04:43:41.724Z,18.50
2022-10-23T04:46:27.556Z,18.50
2022-10-23T04:49:13.578Z,18.50
2022-10-23T04:52:17.952Z,18.50
2022-10-23T04:55:25.436Z,18.50
2022-10-23T04:58:32.170Z,18.50
2022-10-23T05:01:18.158Z,18.40
2022-10-23T05:04:04.462Z,18.50
2022-10-23T05:06:54.172Z,18.50
2022-10-23T05:09:53.169Z,18.40
2022-10-23T05:12:48.606Z,18.40
2022-10-23T05:15:36.777Z,18.40
2022-10-23T05:18:34.684Z,18.40
2022-10-23T05:21:26.405Z,18.40
2022-10-23T05:24:11.897Z,18.40
2022-10-23T05:26:58.441Z,18.30
2022-10-23T05:29:44.451Z,18.40
2022-10-23T05:32:32.835Z,18.30
2022-10-23T05:35:23.097Z,18.30
2022-10-23T05:38:10.729Z,18.30
2022-10-23T05:40:57.740Z,18.30
2022-10-23T05:43:46.167Z,18.30
2022-10-23T05:46:50.886Z,18.30
2022-10-23T05:49:58.854Z,18.30
2022-10-23T05:53:08.115Z,18.20
2022-10-23T05:56:09.625Z,18.20
2022-10-23T05:59:12.517Z,18.30
2022-10-23T06:02:19.315Z,18.30
2022-10-23T06:05:13.279Z,18.20
2022-10-23T06:08:00.497Z,18.30
2022-10-23T06:10:47.227Z,18.30
2022-10-23T06:13:33.908Z,18.30
2022-10-23T06:16:21.661Z,18.30
2022-10-23T06:19:11.059Z,18.30
2022-10-23T06:21:58.368Z,18.30
2022-10-23T06:24:59.308Z,18.30
2022-10-23T06:27:46.934Z,18.30
2022-10-23T06:30:33.297Z,18.40
2022-10-23T06:33:19.167Z,18.40
2022-10-23T06:36:06.389Z,18.40
2022-10-23T06:38:52.467Z,18.50
2022-10-23T06:41:42.091Z,18.60
2022-10-23T06:44:27.701Z,18.60
2022-10-23T06:50:47.063Z,18.60
2022-10-23T06:53:39.265Z,18.60
2022-10-23T06:56:35.141Z,18.60
2022-10-23T06:59:24.385Z,18.60
2022-10-23T07:02:11.926Z,18.60
2022-10-23T07:04:58.730Z,18.70
2022-10-23T07:07:45.430Z,18.70
2022-10-23T07:10:35.789Z,18.80
2022-10-23T07:13:22.757Z,18.90
2022-10-23T07:16:28.795Z,18.80
2022-10-23T07:19:15.630Z,18.90
2022-10-23T07:22:16.053Z,18.90
2022-10-23T07:25:14.603Z,19.00
2022-10-23T07:28:00.578Z,18.90
2022-10-23T07:30:59.526Z,19.10
2022-10-23T07:33:56.464Z,19.10
2022-10-23T07:36:42.518Z,19.10
2022-10-23T07:39:28.221Z,19.10
2022-10-23T07:42:13.785Z,19.00
2022-10-23T07:45:00.975Z,19.10
2022-10-23T07:47:52.776Z,19.20
2022-10-23T07:50:41.385Z,19.30
2022-10-23T07:53:28.379Z,19.40
2022-10-23T07:56:31.478Z,19.50
2022-10-23T07:59:37.974Z,19.60
2022-10-23T08:02:28.281Z,19.70
2022-10-23T08:05:14.032Z,19.70
2022-10-23T08:08:08.055Z,19.70
2022-10-23T08:10:56.557Z,19.80
2022-10-23T08:13:47.249Z,19.90
2022-10-23T08:16:35.690Z,19.80
2022-10-23T08:19:36.965Z,19.90
2022-10-23T08:22:22.983Z,19.90
2022-10-23T08:25:09.673Z,20.00
2022-10-23T08:27:55.835Z,20.00
2022-10-23T08:30:41.790Z,20.00
2022-10-23T08:33:28.098Z,20.00
2022-10-23T08:36:24.079Z,20.00
2022-10-23T08:39:11.583Z,20.10
2022-10-23T08:42:01.520Z,20.10
2022-10-23T08:45:01.892Z,20.20
2022-10-23T08:47:55.731Z,20.20
2022-10-23T08:51:12.065Z,20.20
2022-10-23T08:54:16.748Z,20.10
2022-10-23T08:57:12.846Z,20.10
2022-10-23T09:00:03.682Z,20.20
2022-10-23T09:02:53.440Z,20.10
2022-10-23T09:06:07.428Z,20.10
2022-10-23T09:08:59.307Z,20.10
2022-10-23T09:11:59.623Z,20.20
2022-10-23T09:15:23.305Z,20.30
2022-10-23T09:18:15.685Z,20.30
2022-10-23T09:21:01.949Z,20.40
2022-10-23T09:23:47.632Z,20.40
2022-10-23T09:26:33.751Z,20.50
2022-10-23T09:29:33.029Z,20.50
2022-10-23T09:32:20.677Z,20.50
2022-10-23T09:35:06.871Z,20.60
2022-10-23T09:37:56.050Z,20.70
2022-10-23T09:40:43.575Z,20.70
2022-10-23T09:43:30.249Z,20.80
2022-10-23T09:46:21.533Z,20.90
2022-10-23T09:49:19.743Z,21.00
2022-10-23T09:52:08.397Z,21.10
2022-10-23T09:54:58.691Z,21.20
2022-10-23T09:57:45.360Z,21.40
2022-10-23T10:00:33.710Z,21.50
2022-10-23T10:03:23.798Z,21.50
2022-10-23T10:06:32.373Z,21.40
2022-10-23T10:09:18.991Z,21.50
2022-10-23T10:12:17.178Z,21.70
2022-10-23T10:15:07.453Z,21.80
2022-10-23T10:18:11.990Z,21.90
2022-10-23T10:21:07.080Z,22.20
2022-10-23T10:24:15.322Z,22.30
2022-10-23T10:27:04.253Z,22.40
2022-10-23T10:29:56.077Z,22.50
2022-10-23T10:33:00.919Z,22.50
2022-10-23T10:36:00.955Z,22.50
2022-10-23T10:39:01.270Z,22.70
2022-10-23T10:41:54.901Z,22.90
2022-10-23T10:44:56.209Z,23.00
2022-10-23T10:47:50.447Z,22.90
2022-10-23T10:51:07.291Z,23.00
2022-10-23T10:54:33.385Z,23.10
2022-10-23T10:57:34.669Z,23.00
2022-10-23T11:00:23.092Z,23.00
2022-10-23T11:03:39.817Z,23.00
2022-10-23T11:06:30.748Z,23.10
2022-10-23T11:09:21.720Z,23.30
2022-10-23T11:12:14.352Z,23.20
2022-10-23T11:14:59.950Z,23.30
2022-10-23T11:17:50.445Z,23.40
2022-10-23T11:20:51.022Z,23.50
2022-10-23T11:24:11.324Z,23.70
2022-10-23T11:27:18.834Z,23.60
2022-10-23T11:30:19.520Z,23.50
2022-10-23T11:33:28.745Z,23.50
2022-10-23T11:36:32.784Z,23.50
2022-10-23T11:39:21.234Z,23.30
2022-10-23T11:42:06.870Z,23.40
2022-10-23T11:44:52.433Z,23.50
2022-10-23T11:47:43.033Z,23.60
2022-10-23T11:50:35.075Z,23.70
2022-10-23T11:53:33.754Z,23.70
2022-10-23T11:56:19.576Z,23.70
2022-10-23T11:59:30.668Z,23.70
2022-10-23T12:02:34.101Z,23.70
2022-10-23T12:05:37.845Z,23.60
2022-10-23T12:08:28.184Z,23.50
2022-10-23T12:11:41.398Z,23.40
2022-10-23T12:14:51.457Z,23.40
2022-10-23T12:17:42.239Z,23.30
2022-10-23T12:20:47.006Z,23.40
2022-10-23T12:23:43.206Z,23.30
2022-10-23T12:26:53.338Z,23.20
2022-10-23T12:30:00.335Z,23.30
2022-10-23T12:32:54.477Z,23.30
2022-10-23T12:35:47.680Z,23.30
2022-10-23T12:38:39.389Z,23.30
2022-10-23T12:41:27.222Z,23.30
2022-10-23T12:44:13.573Z,23.30
2022-10-23T12:47:02.450Z,23.30
2022-10-23T12:49:51.026Z,23.30
2022-10-23T12:52:39.625Z,23.30
2022-10-23T12:55:28.787Z,23.30
2022-10-23T12:58:25.904Z,23.20
2022-10-23T13:01:33.120Z,23.20
2022-10-23T13:04:32.021Z,23.20
2022-10-23T13:07:21.401Z,23.30
2022-10-23T13:10:16.818Z,23.30
2022-10-23T13:13:23.941Z,23.20
2022-10-23T13:16:21.766Z,23.30
2022-10-23T13:19:26.107Z,23.60
2022-10-23T13:22:21.593Z,23.80
2022-10-23T13:25:44.509Z,23.70
2022-10-23T13:28:35.211Z,23.60
2022-10-23T13:31:21.994Z,23.50
2022-10-23T13:34:18.537Z,23.60
2022-10-23T13:37:23.222Z,23.70
2022-10-23T13:40:26.896Z,23.80
2022-10-23T13:43:18.887Z,23.80
2022-10-23T13:46:04.626Z,23.80
2022-10-23T13:48:52.994Z,23.90
2022-10-23T13:52:05.119Z,24.00
2022-10-23T13:54:51.164Z,24.50
2022-10-23T13:57:36.805Z,24.80
2022-10-23T14:00:22.302Z,24.70
2022-10-23T14:03:11.016Z,24.20
2022-10-23T14:05:56.880Z,23.90
2022-10-23T14:08:43.823Z,23.70
2022-10-23T14:11:31.506Z,23.60
2022-10-23T14:14:16.957Z,23.60
2022-10-23T14:17:05.625Z,23.70
2022-10-23T14:19:51.660Z,23.60
2022-10-23T14:22:37.928Z,23.50
2022-10-23T14:25:23.626Z,23.40
2022-10-23T14:28:10.210Z,23.40
2022-10-23T14:30:56.368Z,23.40
2022-10-23T14:33:42.817Z,23.30
2022-10-23T14:36:38.525Z,23.30
2022-10-23T14:39:35.421Z,23.60
2022-10-23T14:42:21.013Z,23.70
2022-10-23T14:45:07.859Z,23.50
2022-10-23T14:47:53.653Z,23.40
2022-10-23T14:50:45.562Z,23.20
2022-10-23T14:53:31.469Z,23.10
2022-10-23T14:56:17.046Z,23.10
2022-10-23T14:59:03.156Z,23.10
2022-10-23T15:01:49.652Z,23.00
2022-10-23T15:04:35.645Z,23.00
2022-10-23T15:07:21.136Z,23.00
2022-10-23T15:10:11.237Z,22.90
2022-10-23T15:12:57.464Z,22.90
2022-10-23T15:15:43.247Z,22.90
2022-10-23T15:18:29.232Z,22.80
2022-10-23T15:21:16.415Z,22.80
2022-10-23T15:24:02.252Z,22.90
2022-10-23T15:26:49.946Z,23.00
2022-10-23T15:29:35.721Z,23.00
2022-10-23T15:32:21.986Z,23.00
2022-10-23T15:35:08.659Z,22.90
2022-10-23T15:37:54.735Z,22.80
2022-10-23T15:40:42.611Z,22.70
2022-10-23T15:43:30.152Z,22.70
2022-10-23T15:46:15.925Z,22.60
2022-10-23T15:49:01.393Z,22.60
2022-10-23T15:51:47.209Z,22.60
2022-10-23T15:54:33.049Z,22.50
2022-10-23T15:57:18.855Z,22.50
2022-10-23T16:00:08.711Z,22.40
2022-10-23T16:02:54.816Z,22.40
2022-10-23T16:05:41.570Z,22.30
2022-10-23T16:08:27.633Z,22.30
2022-10-23T16:11:23.228Z,22.30
2022-10-23T16:14:14.263Z,22.20
2022-10-23T16:17:00.504Z,22.20
2022-10-23T16:19:46.396Z,22.20
2022-10-23T16:22:32.185Z,22.10
2022-10-23T16:25:17.747Z,22.10
2022-10-23T16:28:05.019Z,22.10
2022-10-23T16:30:51.133Z,22.00
2022-10-23T16:33:36.805Z,22.00
2022-10-23T16:36:23.037Z,22.00
2022-10-23T16:39:36.131Z,21.90
2022-10-23T16:42:41.992Z,21.90
2022-10-23T16:45:34.405Z,21.90
2022-10-23T16:48:23.167Z,21.80
2022-10-23T16:51:19.431Z,21.80
2022-10-23T16:54:05.504Z,21.70
2022-10-23T16:56:51.549Z,21.70
2022-10-23T16:59:40.291Z,21.60
2022-10-23T17:02:26.636Z,21.60
2022-10-23T17:05:12.753Z,21.60
2022-10-23T17:07:59.009Z,21.50
2022-10-23T17:10:44.835Z,21.50
2022-10-23T17:13:32.195Z,21.50
2022-10-23T17:16:19.861Z,21.40
2022-10-23T17:19:20.728Z,21.40
2022-10-23T17:22:10.689Z,21.40
2022-10-23T17:24:57.084Z,21.30
2022-10-23T17:27:45.543Z,21.30
2022-10-23T17:30:31.644Z,21.30
2022-10-23T17:33:18.037Z,21.30
2022-10-23T17:36:04.621Z,21.40
2022-10-23T17:38:51.010Z,21.40
2022-10-23T17:41:37.223Z,21.30
2022-10-23T17:44:23.830Z,21.30
2022-10-23T17:47:10.049Z,21.30
2022-10-23T17:49:55.458Z,21.30
2022-10-23T17:52:42.557Z,21.30
2022-10-23T17:55:28.864Z,21.30
2022-10-23T17:58:15.557Z,21.30
2022-10-23T18:01:09.570Z,21.20
2022-10-23T18:03:57.564Z,21.20
2022-10-23T18:06:46.023Z,21.10
2022-10-23T18:09:31.620Z,21.10
2022-10-23T18:12:17.275Z,21.10
2022-10-23T18:15:03.252Z,21.00
2022-10-23T18:17:49.848Z,21.00
2022-10-23T18:20:40.561Z,21.00
2022-10-23T18:23:28.671Z,21.00
2022-10-23T18:26:20.595Z,21.00
2022-10-23T18:29:09.786Z,20.90
2022-10-23T18:31:55.829Z,21.00
2022-10-23T18:34:41.777Z,20.90
2022-10-23T18:37:31.807Z,20.90
2022-10-23T18:40:19.937Z,20.90
2022-10-23T18:43:14.788Z,20.90
2022-10-23T18:46:01.634Z,20.90
2022-10-23T18:48:50.858Z,20.90
2022-10-23T18:51:38.165Z,20.80
2022-10-23T18:54:24.214Z,20.80
2022-10-23T18:57:10.953Z,20.80
2022-10-23T18:59:57.075Z,20.80
2022-10-23T19:02:43.237Z,20.80
2022-10-23T19:05:29.328Z,20.80
2022-10-23T19:08:14.824Z,20.80
2022-10-23T19:11:03.189Z,20.80
2022-10-23T19:13:49.569Z,20.80
2022-10-23T19:17:02.741Z,20.80
2022-10-23T19:19:54.605Z,20.80
2022-10-23T19:22:45.811Z,20.80
2022-10-23T19:25:36.158Z,20.70
2022-10-23T19:28:23.293Z,20.70
2022-10-23T19:31:11.062Z,20.70
2022-10-23T19:33:58.123Z,20.60
2022-10-23T19:36:44.262Z,20.60
2022-10-23T19:39:30.152Z,20.60
2022-10-23T19:42:16.688Z,20.60
2022-10-23T19:45:04.103Z,20.50
2022-10-23T19:47:50.869Z,20.50
2022-10-23T19:50:37.019Z,20.40
2022-10-23T19:53:23.637Z,20.40
2022-10-23T19:56:11.397Z,20.40
2022-10-23T19:58:58.868Z,20.30
2022-10-23T20:01:47.918Z,20.30
2022-10-23T20:04:35.990Z,20.30
2022-10-23T20:07:22.515Z,20.30
2022-10-23T20:10:10.631Z,20.30
2022-10-23T20:13:18.285Z,20.30
2022-10-23T20:16:04.020Z,20.30
2022-10-23T20:18:50.872Z,20.30
2022-10-23T20:21:38.147Z,20.30
2022-10-23T20:24:25.234Z,20.30
2022-10-23T20:27:13.754Z,20.30
2022-10-23T20:29:59.724Z,20.30
2022-10-23T20:32:46.225Z,20.20
2022-10-23T20:35:43.050Z,20.20
2022-10-23T20:38:28.861Z,20.20
2022-10-23T20:41:15.152Z,20.20
2022-10-23T20:44:01.168Z,20.20
2022-10-23T20:46:47.370Z,20.20
2022-10-23T20:49:33.461Z,20.10
2022-10-23T20:52:21.893Z,20.10
2022-10-23T20:55:08.213Z,20.10
2022-10-23T20:57:55.037Z,20.00
2022-10-23T21:00:41.293Z,20.10
2022-10-23T21:03:27.080Z,20.00
2022-10-23T21:06:14.840Z,20.00
2022-10-23T21:09:04.361Z,20.00
2022-10-23T21:11:51.117Z,19.90
2022-10-23T21:14:36.795Z,19.90
2022-10-23T21:17:22.478Z,19.90
2022-10-23T21:20:08.331Z,19.90
2022-10-23T21:22:55.387Z,19.90
2022-10-23T21:25:42.057Z,19.90
2022-10-23T21:28:28.635Z,19.90
2022-10-23T21:31:14.435Z,19.90
2022-10-23T21:34:00.938Z,19.80
2022-10-23T21:39:54.092Z,19.80
2022-10-23T21:42:39.999Z,19.80
2022-10-23T21:45:26.286Z,19.80
2022-10-23T21:48:11.989Z,19.80
2022-10-23T21:50:59.594Z,19.80
2022-10-23T21:53:45.477Z,19.70
2022-10-23T21:56:42.820Z,19.70
2022-10-23T21:59:31.591Z,19.70
2022-10-23T22:02:19.025Z,19.70
2022-10-23T22:05:05.181Z,19.70
2022-10-23T22:07:51.321Z,19.60
2022-10-23T22:10:37.087Z,19.50
2022-10-23T22:13:22.941Z,19.50
2022-10-23T22:16:10.010Z,19.50
2022-10-23T22:18:55.604Z,19.40
2022-10-23T22:21:42.732Z,19.40
2022-10-23T22:24:28.224Z,19.40
2022-10-23T22:27:13.631Z,19.30
2022-10-23T22:30:03.594Z,19.30
2022-10-23T22:32:49.820Z,19.30
2022-10-23T22:35:35.473Z,19.30
2022-10-23T22:38:20.842Z,19.30
2022-10-23T22:41:06.956Z,19.30
2022-10-23T22:43:57.303Z,19.30
2022-10-23T22:46:43.944Z,19.40
2022-10-23T22:49:30.194Z,19.30
2022-10-23T22:52:15.877Z,19.30
2022-10-23T22:55:01.559Z,19.30
2022-10-23T22:57:47.850Z,19.30
2022-10-23T23:00:33.980Z,19.30
2022-10-23T23:03:20.029Z,19.20
2022-10-23T23:06:07.586Z,19.20
2022-10-23T23:08:53.572Z,19.20
2022-10-23T23:11:51.178Z,19.20
2022-10-23T23:14:38.878Z,19.20
2022-10-23T23:17:24.277Z,19.10
2022-10-23T23:20:11.180Z,19.10
2022-10-23T23:22:56.850Z,19.10
2022-10-23T23:25:44.764Z,19.10
2022-10-23T23:28:30.925Z,19.10
2022-10-23T23:31:21.749Z,19.00
2022-10-23T23:34:07.135Z,19.00
2022-10-23T23:36:52.682Z,19.00
2022-10-23T23:39:38.520Z,19.10
2022-10-23T23:42:25.006Z,19.10
2022-10-23T23:45:14.737Z,19.00
2022-10-23T23:48:02.320Z,19.00
2022-10-23T23:50:48.390Z,19.00
2022-10-23T23:53:33.997Z,19.00
2022-10-23T23:56:20.361Z,19.00
2022-10-23T23:59:06.352Z,18.90
